createdAt,value
2022-09-07T00:03:37.647Z,99047.22
2022-09-07T00:08:44.125Z,99044.63
2022-09-07T00:13:48.714Z,99052.16
2022-09-07T00:18:51.780Z,99047.81
2022-09-07T00:23:55.205Z,99040.88
2022-09-07T00:29:02.553Z,99011.88
2022-09-07T00:34:05.820Z,99001.72
2022-09-07T00:39:08.900Z,99001.63
2022-09-07T00:44:48.674Z,98946.94
2022-09-07T00:49:55.265Z,98934.13
2022-09-07T00:55:01.973Z,98949.50
2022-09-07T01:00:05.807Z,98958.78
2022-09-07T01:05:35.220Z,98963.88
2022-09-07T01:10:38.901Z,98924.59
2022-09-07T01:16:00.364Z,98858.81
2022-09-07T01:21:44.555Z,98782.09
2022-09-07T01:27:24.286Z,98784.63
2022-09-07T01:32:48.977Z,98775.69
2022-09-07T01:38:04.703Z,98749.59
2022-09-07T01:43:21.917Z,98746.00
2022-09-07T01:48:26.481Z,98765.97
2022-09-07T01:53:34.708Z,98785.50
2022-09-07T01:58:45.319Z,98800.72
2022-09-07T02:03:53.837Z,98815.28
2022-09-07T02:08:59.737Z,98802.50
2022-09-07T02:14:16.711Z,98796.25
2022-09-07T02:19:21.259Z,98793.47
2022-09-07T02:24:38.168Z,98729.97
2022-09-07T02:29:41.091Z,98724.25
2022-09-07T02:34:43.786Z,98751.00
2022-09-07T02:39:46.698Z,98724.44
2022-09-07T02:44:49.615Z,98726.66
2022-09-07T02:50:13.695Z,98684.53
2022-09-07T02:55:59.611Z,98667.28
2022-09-07T03:01:57.867Z,98606.81
2022-09-07T03:07:04.660Z,98558.72
2022-09-07T03:12:08.196Z,98572.16
2022-09-07T03:17:11.341Z,98578.47
2022-09-07T03:22:14.056Z,98617.75
2022-09-07T03:27:16.708Z,98595.72
2022-09-07T03:32:19.398Z,98590.25
2022-09-07T03:37:22.120Z,98593.78
2022-09-07T03:42:24.979Z,98579.22
2022-09-07T03:47:27.891Z,98573.09
2022-09-07T03:52:30.899Z,98592.25
2022-09-07T03:57:33.717Z,98577.28
2022-09-07T04:02:36.466Z,98593.84
2022-09-07T04:07:39.356Z,98620.28
2022-09-07T04:12:42.229Z,98624.13
2022-09-07T04:17:44.912Z,98579.69
2022-09-07T04:22:54.232Z,98553.69
2022-09-07T04:27:57.576Z,98562.69
2022-09-07T04:33:00.303Z,98547.72
2022-09-07T04:38:02.953Z,98549.25
2022-09-07T04:43:05.909Z,98570.34
2022-09-07T04:48:08.667Z,98542.66
2022-09-07T04:53:11.395Z,98521.47
2022-09-07T04:58:14.298Z,98516.88
2022-09-07T05:03:17.004Z,98500.19
2022-09-07T05:08:19.695Z,98506.22
2022-09-07T05:13:22.531Z,98496.03
2022-09-07T05:18:25.782Z,98510.22
2022-09-07T05:23:28.446Z,98500.06
2022-09-07T05:28:31.652Z,98477.09
2022-09-07T05:38:59.234Z,98328.72
2022-09-07T05:49:25.323Z,98264.91
2022-09-07T05:54:28.260Z,98275.91
2022-09-07T05:59:31.178Z,98240.75
2022-09-07T06:04:34.146Z,98198.59
2022-09-07T06:15:01.886Z,98179.13
2022-09-07T06:20:07.047Z,98157.66
2022-09-07T06:25:09.995Z,98148.56
2022-09-07T06:30:13.303Z,98159.53
2022-09-07T06:35:16.364Z,98145.84
2022-09-07T06:40:21.376Z,98152.44
2022-09-07T06:45:24.285Z,98136.19
2022-09-07T06:50:28.237Z,98131.59
2022-09-07T06:55:31.113Z,98126.69
2022-09-07T07:00:33.909Z,98113.69
2022-09-07T07:05:36.704Z,98108.22
2022-09-07T07:10:39.808Z,98119.31
2022-09-07T07:15:43.206Z,98100.41
2022-09-07T07:20:46.034Z,98110.94
2022-09-07T07:25:48.773Z,98107.09
2022-09-07T07:31:04.864Z,98103.69
2022-09-07T07:36:16.169Z,98114.72
2022-09-07T07:46:43.708Z,98126.66
2022-09-07T07:57:09.794Z,98127.06
2022-09-07T08:02:16.071Z,98122.25
2022-09-07T08:07:19.691Z,98128.63
2022-09-07T08:12:25.503Z,98114.41
2022-09-07T08:17:30.611Z,98098.13
2022-09-07T08:22:34.961Z,98121.19
2022-09-07T08:27:37.680Z,98105.09
2022-09-07T08:32:40.910Z,98106.50
2022-09-07T08:37:43.719Z,98117.56
2022-09-07T08:43:04.213Z,98074.44
2022-09-07T08:48:06.971Z,98095.56
2022-09-07T08:53:15.507Z,98116.25
2022-09-07T08:58:49.266Z,98137.84
2022-09-07T09:09:30.063Z,98114.94
2022-09-07T09:14:38.855Z,98134.75
2022-09-07T09:20:01.274Z,98123.38
2022-09-07T09:25:19.217Z,98115.06
2022-09-07T09:30:23.351Z,98127.63
2022-09-07T09:52:44.976Z,98145.03
2022-09-07T10:08:38.567Z,98142.81
2022-09-07T10:13:47.128Z,98155.03
2022-09-07T10:18:59.465Z,98151.25
2022-09-07T10:24:08.537Z,98148.66
2022-09-07T10:29:36.294Z,98154.72
2022-09-07T10:35:05.310Z,98157.22
2022-09-07T10:40:26.389Z,98165.81
2022-09-07T10:46:02.428Z,98142.69
2022-09-07T10:51:14.242Z,98162.94
2022-09-07T10:56:31.118Z,98148.19
2022-09-07T11:01:46.067Z,98143.97
2022-09-07T11:07:00.135Z,98134.84
2022-09-07T11:12:17.314Z,98103.13
2022-09-07T11:17:23.871Z,98111.31
2022-09-07T11:22:52.610Z,98089.66
2022-09-07T11:28:43.227Z,98136.63
2022-09-07T11:34:26.519Z,98140.75
2022-09-07T11:39:35.762Z,98135.97
2022-09-07T11:44:47.626Z,98133.16
2022-09-07T11:49:59.297Z,98130.50
2022-09-07T11:55:11.822Z,98129.69
2022-09-07T12:00:19.938Z,98123.22
2022-09-07T12:05:44.261Z,98129.63
2022-09-07T12:11:08.486Z,98145.25
2022-09-07T12:16:22.096Z,98148.13
2022-09-07T12:22:01.822Z,98155.47
2022-09-07T12:27:36.425Z,98160.88
2022-09-07T12:32:56.456Z,98166.50
2022-09-07T12:38:18.729Z,98175.81
2022-09-07T12:43:22.253Z,98174.19
2022-09-07T12:48:37.101Z,98193.75
2022-09-07T12:53:58.659Z,98197.47
2022-09-07T12:59:17.523Z,98206.78
2022-09-07T13:04:41.177Z,98223.66
2022-09-07T13:09:56.661Z,98238.19
2022-09-07T13:15:00.056Z,98232.56
2022-09-07T13:20:02.782Z,98248.06
2022-09-07T13:25:28.908Z,98260.47
2022-09-07T13:30:44.913Z,98268.31
2022-09-07T13:35:50.644Z,98281.72
2022-09-07T13:40:58.088Z,98279.59
2022-09-07T13:46:03.604Z,98290.50
2022-09-07T13:51:12.958Z,98289.97
2022-09-07T13:56:28.628Z,98301.13
2022-09-07T14:01:31.629Z,98305.53
2022-09-07T14:06:36.685Z,98308.78
2022-09-07T14:11:47.869Z,98314.13
2022-09-07T14:17:06.689Z,98324.50
2022-09-07T14:22:16.393Z,98357.41
2022-09-07T14:27:26.510Z,98402.03
2022-09-07T14:32:29.394Z,98403.44
2022-09-07T14:37:32.213Z,98417.06
2022-09-07T14:42:36.839Z,98421.13
2022-09-07T14:47:41.022Z,98436.00
2022-09-07T14:53:33.925Z,98458.72
2022-09-07T14:58:15.312Z,98445.13
2022-09-07T15:03:34.208Z,98448.59
2022-09-07T15:08:48.615Z,98454.09
2022-09-07T15:14:05.786Z,98446.75
2022-09-07T15:19:18.731Z,98454.84
2022-09-07T15:24:24.196Z,98458.88
2022-09-07T15:29:29.206Z,98449.06
2022-09-07T15:34:33.419Z,98456.72
2022-09-07T15:39:37.354Z,98456.88
2022-09-07T15:44:40.003Z,98458.19
2022-09-07T15:49:49.181Z,98453.94
2022-09-07T15:54:52.958Z,98447.06
2022-09-07T15:59:55.690Z,98446.94
2022-09-07T16:04:58.606Z,98437.31
2022-09-07T16:10:05.099Z,98437.69
2022-09-07T16:15:12.737Z,98441.69
2022-09-07T16:20:15.824Z,98435.59
2022-09-07T16:25:18.709Z,98448.13
2022-09-07T16:30:22.317Z,98442.16
2022-09-07T16:35:25.807Z,98429.72
2022-09-07T16:40:28.527Z,98445.59
2022-09-07T16:51:01.103Z,98453.97
2022-09-07T16:56:13.036Z,98470.03
2022-09-07T17:01:17.924Z,98475.94
2022-09-07T17:06:22.601Z,98463.88
2022-09-07T17:11:31.198Z,98485.25
2022-09-07T17:16:36.776Z,98464.97
2022-09-07T17:21:40.874Z,98483.91
2022-09-07T17:26:43.859Z,98488.06
2022-09-07T17:37:09.437Z,98499.72
2022-09-07T17:42:12.189Z,98502.81
2022-09-07T17:47:14.924Z,98517.22
2022-09-07T17:52:17.617Z,98547.56
2022-09-07T17:57:20.311Z,98538.47
2022-09-07T18:02:23.289Z,98540.03
2022-09-07T18:07:26.111Z,98550.81
2022-09-07T18:12:28.894Z,98522.66
2022-09-07T18:17:31.516Z,98573.59
2022-09-07T18:22:34.588Z,98576.69
2022-09-07T18:27:39.695Z,98579.50
2022-09-07T18:32:45.249Z,98596.16
2022-09-07T18:37:47.821Z,98604.41
2022-09-07T18:42:50.777Z,98607.41
2022-09-07T18:47:55.116Z,98594.75
2022-09-07T18:53:07.328Z,98639.66
2022-09-07T18:58:18.693Z,98630.72
2022-09-07T19:03:21.716Z,98658.41
2022-09-07T19:08:24.391Z,98660.25
2022-09-07T19:13:27.422Z,98670.69
2022-09-07T19:18:30.145Z,98660.69
2022-09-07T19:23:33.533Z,98666.97
2022-09-07T19:28:37.240Z,98652.78
2022-09-07T19:33:39.904Z,98687.19
2022-09-07T19:38:42.775Z,98692.63
2022-09-07T19:43:46.533Z,98703.09
2022-09-07T19:48:49.376Z,98722.16
2022-09-07T19:53:52.204Z,98722.66
2022-09-07T19:58:54.919Z,98752.41
2022-09-07T20:03:59.731Z,98751.03
2022-09-07T20:09:02.636Z,98766.69
2022-09-07T20:14:05.471Z,98731.06
2022-09-07T20:19:08.296Z,98765.44
2022-09-07T20:24:14.872Z,98792.19
2022-09-07T20:29:27.283Z,98816.25
2022-09-07T20:34:30.646Z,98831.00
2022-09-07T20:39:38.408Z,98843.91
2022-09-07T20:44:41.916Z,98848.34
2022-09-07T20:49:44.648Z,98866.28
2022-09-07T20:54:47.341Z,98877.41
2022-09-07T20:59:50.013Z,98902.97
2022-09-07T21:04:52.825Z,98898.78
2022-09-07T21:09:55.713Z,98897.97
2022-09-07T21:14:58.697Z,98920.22
2022-09-07T21:20:01.426Z,98935.56
2022-09-07T21:25:04.268Z,98933.88
2022-09-07T21:30:07.472Z,98922.81
2022-09-07T21:35:13.420Z,98938.16
2022-09-07T21:40:16.609Z,98949.25
2022-09-07T21:45:19.438Z,98962.03
2022-09-07T21:50:22.256Z,98979.06
2022-09-07T21:55:24.936Z,98958.63
2022-09-07T22:00:27.633Z,98979.91
2022-09-07T22:05:30.288Z,98986.69
2022-09-07T22:10:33.994Z,98979.84
2022-09-07T22:15:41.317Z,98992.63
2022-09-07T22:20:43.991Z,99006.19
2022-09-07T22:25:53.590Z,99002.81
2022-09-07T22:30:57.399Z,99015.56
2022-09-07T22:36:16.284Z,99015.63
2022-09-07T22:41:29.758Z,99009.72
2022-09-07T22:46:36.033Z,99044.69
2022-09-07T22:51:39.176Z,99052.38
2022-09-07T22:56:42.368Z,99059.19
2022-09-07T23:01:46.188Z,99054.91
2022-09-07T23:06:48.980Z,99057.47
2022-09-07T23:11:51.628Z,99061.75
2022-09-07T23:16:54.431Z,99083.88
2022-09-07T23:21:57.075Z,99082.19
2022-09-07T23:26:59.714Z,99080.50
2022-09-07T23:32:02.532Z,99082.16
2022-09-07T23:37:05.356Z,99071.97
2022-09-07T23:42:08.350Z,99095.81
2022-09-07T23:47:11.194Z,99089.00
2022-09-07T23:52:13.976Z,99104.34
2022-09-07T23:57:16.736Z,99120.50
